createdAt,value
2023-03-23T15:59:08.618Z,19.60
2023-03-23T16:01:38.414Z,19.27
2023-03-23T16:04:07.683Z,19.40
2023-03-23T16:06:36.282Z,19.15
2023-03-23T16:09:06.069Z,18.78
2023-03-23T16:11:34.168Z,18.85
2023-03-23T16:14:01.697Z,18.78
2023-03-23T16:16:32.237Z,19.05
2023-03-23T16:18:59.412Z,18.99
2023-03-23T16:21:26.523Z,19.08
2023-03-23T16:23:54.765Z,18.83
2023-03-23T16:26:23.433Z,18.75
2023-03-23T16:28:53.212Z,18.59
2023-03-23T16:31:22.551Z,18.77
2023-03-23T16:33:49.593Z,18.79
2023-03-23T16:36:16.702Z,18.80
2023-03-23T16:38:48.964Z,18.50
2023-03-23T16:41:17.441Z,18.65
2023-03-23T16:43:46.115Z,18.45
2023-03-23T16:46:14.300Z,18.69
2023-03-23T16:48:41.496Z,18.53
2023-03-23T16:51:08.551Z,18.59
2023-03-23T16:53:37.146Z,18.54
2023-03-23T16:56:06.127Z,18.66
2023-03-23T16:58:33.275Z,18.52
2023-03-23T17:01:07.894Z,18.63
2023-03-23T17:03:35.776Z,18.60
2023-03-23T17:06:05.108Z,18.55
2023-03-23T17:08:33.087Z,18.54
2023-03-23T17:11:06.184Z,18.61
2023-03-23T17:13:33.260Z,18.59
2023-03-23T17:16:01.910Z,18.32
2023-03-23T17:18:30.914Z,18.53
2023-03-23T17:20:58.933Z,18.49
2023-03-23T17:23:26.200Z,18.65
2023-03-23T17:25:54.237Z,18.46
2023-03-23T17:28:21.672Z,18.32
2023-03-23T17:30:53.125Z,18.50
2023-03-23T17:33:20.349Z,18.08
2023-03-23T17:35:52.143Z,18.00
2023-03-23T17:38:19.930Z,18.06
2023-03-23T17:40:47.288Z,17.86
2023-03-23T17:43:14.654Z,17.74
2023-03-23T17:45:43.563Z,17.99
2023-03-23T17:48:12.265Z,18.06
2023-03-23T17:50:39.390Z,17.61
2023-03-23T17:53:07.808Z,17.66
2023-03-23T17:55:34.894Z,17.63
2023-03-23T17:58:02.449Z,17.78
2023-03-23T18:00:29.528Z,17.19
2023-03-23T18:02:58.294Z,17.41
2023-03-23T18:05:29.285Z,17.25
2023-03-23T18:07:58.543Z,17.23
2023-03-23T18:10:30.567Z,17.21
2023-03-23T18:13:12.201Z,17.18
2023-03-23T18:16:20.417Z,16.99
2023-03-23T18:19:05.975Z,16.95
2023-03-23T18:21:38.088Z,16.73
2023-03-23T18:25:16.171Z,16.71
2023-03-23T18:28:31.204Z,16.67
2023-03-23T18:31:12.120Z,16.71
2023-03-23T18:33:46.926Z,16.71
2023-03-23T18:36:42.665Z,16.72
2023-03-23T18:39:34.231Z,16.70
2023-03-23T18:42:01.457Z,16.76
2023-03-23T18:44:30.478Z,16.73
2023-03-23T18:46:57.516Z,16.68
2023-03-23T18:49:39.545Z,16.60
2023-03-23T18:52:06.995Z,16.74
2023-03-23T18:54:35.124Z,16.79
2023-03-23T18:57:19.930Z,16.68
2023-03-23T18:59:56.605Z,16.75
2023-03-23T19:02:24.438Z,16.55
2023-03-23T19:05:05.657Z,16.59
2023-03-23T19:07:33.264Z,16.59
2023-03-23T19:10:12.872Z,16.46
2023-03-23T19:12:55.425Z,16.13
2023-03-23T19:15:27.642Z,16.30
2023-03-23T19:18:10.799Z,16.21
2023-03-23T19:21:15.558Z,16.28
2023-03-23T19:24:26.375Z,16.21
2023-03-23T19:27:06.823Z,16.25
2023-03-23T19:29:36.142Z,16.07
2023-03-23T19:32:19.690Z,16.22
2023-03-23T19:35:03.452Z,16.18
2023-03-23T19:37:40.182Z,16.12
2023-03-23T19:40:36.676Z,16.32
2023-03-23T19:43:11.039Z,16.23
2023-03-23T19:45:46.155Z,16.12
2023-03-23T19:48:17.606Z,16.00
2023-03-23T19:50:58.176Z,16.01
2023-03-23T19:53:27.245Z,15.74
2023-03-23T19:55:59.911Z,15.79
2023-03-23T19:58:39.738Z,16.02
2023-03-23T20:01:19.438Z,16.05
2023-03-23T20:03:53.535Z,16.29
2023-03-23T20:06:41.106Z,16.18
2023-03-23T20:09:41.264Z,16.08
2023-03-23T20:12:14.645Z,16.21
2023-03-23T20:14:47.921Z,16.24
2023-03-23T20:17:58.080Z,15.89
2023-03-23T20:20:29.724Z,16.07
2023-03-23T20:23:19.254Z,15.80
2023-03-23T20:25:47.124Z,15.92
2023-03-23T20:28:15.085Z,15.93
2023-03-23T20:31:16.814Z,15.85
2023-03-23T20:34:21.850Z,15.71
2023-03-23T20:36:50.621Z,15.83
2023-03-23T20:39:54.893Z,15.66
2023-03-23T20:42:22.453Z,15.62
2023-03-23T20:44:58.402Z,15.63
2023-03-23T20:47:25.908Z,15.73
2023-03-23T20:50:02.508Z,15.47
2023-03-23T20:52:33.906Z,15.69
2023-03-23T20:55:01.122Z,15.76
2023-03-23T20:57:28.933Z,15.62
2023-03-23T20:59:56.321Z,15.84
2023-03-23T21:02:26.090Z,15.38
2023-03-23T21:04:54.139Z,15.77
2023-03-23T21:07:23.333Z,15.42
2023-03-23T21:09:51.852Z,15.57
2023-03-23T21:12:18.801Z,15.37
2023-03-23T21:14:46.221Z,15.63
2023-03-23T21:17:13.251Z,15.43
2023-03-23T21:19:40.881Z,15.70
2023-03-23T21:22:09.764Z,15.88
2023-03-23T21:24:40.434Z,15.78
2023-03-23T21:27:08.903Z,15.53
2023-03-23T21:29:35.958Z,15.67
2023-03-23T21:32:08.302Z,15.71
2023-03-23T21:34:36.873Z,15.92
2023-03-23T21:37:04.085Z,15.99
2023-03-23T21:39:31.684Z,15.79
2023-03-23T21:41:59.769Z,16.10
2023-03-23T21:44:28.212Z,15.86
2023-03-23T21:46:55.317Z,16.04
2023-03-23T21:49:22.431Z,15.95
2023-03-23T21:51:50.152Z,16.02
2023-03-23T21:54:17.678Z,15.91
2023-03-23T21:56:44.767Z,15.97
2023-03-23T21:59:12.043Z,16.08
2023-03-23T22:01:40.667Z,16.22
2023-03-23T22:04:08.401Z,16.25
2023-03-23T22:06:35.931Z,15.85
2023-03-23T22:09:05.625Z,16.01
2023-03-23T22:11:33.427Z,16.11
2023-03-23T22:14:01.105Z,15.82
2023-03-23T22:16:28.597Z,15.80
2023-03-23T22:19:00.231Z,15.94
2023-03-23T22:21:28.463Z,16.25
2023-03-23T22:23:57.605Z,15.64
2023-03-23T22:26:27.310Z,15.84
2023-03-23T22:28:54.852Z,16.01
2023-03-23T22:31:24.328Z,15.71
2023-03-23T22:33:55.072Z,15.60
2023-03-23T22:36:25.018Z,15.83
2023-03-23T22:38:52.244Z,15.87
2023-03-23T22:41:22.524Z,15.69
2023-03-23T22:43:50.013Z,15.53
2023-03-23T22:46:18.114Z,15.51
2023-03-23T22:48:45.432Z,15.83
2023-03-23T22:51:15.174Z,15.71
2023-03-23T22:53:44.741Z,15.76
2023-03-23T22:56:12.501Z,15.82
2023-03-23T22:58:40.306Z,15.82
2023-03-23T23:01:09.615Z,15.84
2023-03-23T23:03:38.125Z,16.09
2023-03-23T23:06:06.167Z,15.82
2023-03-23T23:08:33.520Z,15.88
2023-03-23T23:11:03.867Z,16.01
2023-03-23T23:13:33.092Z,16.11
2023-03-23T23:16:01.602Z,16.06
2023-03-23T23:18:30.919Z,15.96
2023-03-23T23:21:00.062Z,16.18
2023-03-23T23:23:28.493Z,16.22
2023-03-23T23:25:57.306Z,16.18
2023-03-23T23:28:26.733Z,16.30
2023-03-23T23:30:54.862Z,16.40
2023-03-23T23:33:22.619Z,16.50
2023-03-23T23:35:50.183Z,16.29
2023-03-23T23:38:17.355Z,16.40
2023-03-23T23:40:46.354Z,16.28
2023-03-23T23:43:14.893Z,16.27
2023-03-23T23:45:43.830Z,16.55
2023-03-23T23:48:12.651Z,16.69
2023-03-23T23:50:39.866Z,16.46
2023-03-23T23:53:10.010Z,16.38
2023-03-23T23:55:38.731Z,16.63
2023-03-23T23:58:06.091Z,16.57
